Meaux, Louisiana
Current Conditions -  °F | °C
As of 8:50 AM on Wednesday 22 Oct 2014 (Local Time) from KIYA Reporting Station
Clear Clear  
Wind Chill: 64°   Ceiling: Unl
Heat Index: 64°   Visibility: 10mi
Dew Point: 60°   Wind: 3mph
Humidity: 86%   Direction: 50°NE
Pressure: 30.09"   Gusts: NA
Location:  29.8955°N, 92.208°W
Report Text: KIYA 221350Z AUTO 05003KT 10SM CLR 18/15 A3009 RMK AO2 T01780154
Loading
Personal Weather Stations






























Interactive Weather Map
Tropical Storm Tracking
New forecast layout! Learn more

10-Day Weather Forecast

Advertisements
Track Severe Weather on mobile